Time;durP1;ratioP1;P1;durP2;ratioP2;P2;SDS_P1;SDS_P2;PMS_P1;PMS_P2;Temp;Humidity;BMP_temperature;BMP_pressure;BME280_temperature;BME280_humidity;BME280_pressure;Samples;Min_cycle;Max_cycle;Signal;HPM_P1;HPM_P2
2023/07/06 00:02:23;;;;;;;;;;;22.60;50.70;;;;;;5077293;28;20185;-89
2023/07/06 00:04:49;;;;;;;;;;;22.60;50.70;;;;;;5072882;28;19912;-90
2023/07/06 00:07:20;;;;;;;;;;;22.60;50.70;;;;;;5073116;28;19908;-90
2023/07/06 00:09:50;;;;;;;;;;;22.60;50.70;;;;;;5072444;28;19942;-90
2023/07/06 00:12:17;;;;;;;;;;;22.60;50.70;;;;;;5065278;28;19978;-90
2023/07/06 00:14:43;;;;;;;;;;;22.60;50.70;;;;;;5068421;28;19916;-90
2023/07/06 00:17:10;;;;;;;;;;;22.60;50.70;;;;;;5069073;28;19973;-91
2023/07/06 00:19:37;;;;;;;;;;;22.60;50.70;;;;;;5072063;28;19987;-90
2023/07/06 00:22:02;;;;;;;;;;;22.60;50.70;;;;;;5052383;28;20312;-90
2023/07/06 00:24:28;;;;;;;;;;;22.60;51.00;;;;;;5075023;28;19912;-90
2023/07/06 00:26:53;;;;;;;;;;;22.60;50.70;;;;;;5077691;28;19939;-90
2023/07/06 00:29:19;;;;;;;;;;;22.60;50.70;;;;;;5068461;28;19951;-90
2023/07/06 00:31:51;;;;;;;;;;;22.60;51.10;;;;;;5088997;28;20243;-90
2023/07/06 00:34:18;;;;;;;;;;;22.50;50.60;;;;;;5076479;28;20333;-90
2023/07/06 00:36:44;;;;;;;;;;;22.50;51.00;;;;;;5073159;28;20586;-90
2023/07/06 00:39:12;;;;;;;;;;;22.50;50.60;;;;;;5063383;28;20047;-90
2023/07/06 00:41:38;;;;;;;;;;;22.50;50.60;;;;;;5074813;28;19987;-90
2023/07/06 00:44:04;;;;;;;;;;;22.50;50.60;;;;;;5065640;28;20010;-90
2023/07/06 00:46:36;;;;;;;;;;;22.50;50.60;;;;;;5066056;28;19907;-89
2023/07/06 00:49:03;;;;;;;;;;;22.50;50.60;;;;;;5065578;28;19918;-90
2023/07/06 00:51:34;;;;;;;;;;;22.50;50.60;;;;;;5086712;28;20007;-90
2023/07/06 00:54:03;;;;;;;;;;;22.50;50.70;;;;;;5070563;28;19961;-90
2023/07/06 00:56:31;;;;;;;;;;;22.50;50.60;;;;;;5067864;28;19942;-89
2023/07/06 00:59:07;;;;;;;;;;;22.50;50.60;;;;;;5067912;28;19908;-90
2023/07/06 01:01:34;;;;;;;;;;;22.50;50.60;;;;;;5066872;28;19909;-89
2023/07/06 01:04:01;;;;;;;;;;;22.50;50.60;;;;;;5067641;28;19915;-90
2023/07/06 01:06:34;;;;;;;;;;;22.50;50.70;;;;;;5071311;28;19913;-90
2023/07/06 01:09:00;;;;;;;;;;;22.40;50.60;;;;;;5071046;28;19934;-90
2023/07/06 01:11:28;;;;;;;;;;;22.50;50.60;;;;;;5068662;28;19916;-90
2023/07/06 01:13:54;;;;;;;;;;;22.40;50.60;;;;;;5083952;28;19920;-90
2023/07/06 01:16:30;;;;;;;;;;;22.40;50.60;;;;;;5071016;28;19919;-90
2023/07/06 01:18:55;;;;;;;;;;;22.40;50.60;;;;;;5069432;28;20333;-90
2023/07/06 01:21:28;;;;;;;;;;;22.40;50.60;;;;;;5067092;28;19916;-90
2023/07/06 01:24:09;;;;;;;;;;;22.40;50.60;;;;;;5068409;28;19909;-90
2023/07/06 01:26:48;;;;;;;;;;;22.40;50.60;;;;;;5073160;28;19908;-90
2023/07/06 01:29:33;;;;;;;;;;;22.30;50.60;;;;;;5067519;28;20271;-90
2023/07/06 01:32:02;;;;;;;;;;;22.40;50.60;;;;;;5066498;28;19952;-90
2023/07/06 01:34:46;;;;;;;;;;;22.30;50.60;;;;;;5068168;28;20229;-90
2023/07/06 01:37:17;;;;;;;;;;;22.30;50.60;;;;;;5087230;28;19908;-90
2023/07/06 01:39:44;;;;;;;;;;;22.30;50.60;;;;;;5084680;28;20191;-90
2023/07/06 01:42:11;;;;;;;;;;;22.30;50.60;;;;;;5083469;28;19957;-90
2023/07/06 01:44:37;;;;;;;;;;;22.30;50.60;;;;;;5088529;28;19931;-90
2023/07/06 01:47:03;;;;;;;;;;;22.30;50.60;;;;;;5081978;28;19908;-90
2023/07/06 01:49:29;;;;;;;;;;;22.30;50.60;;;;;;5088733;28;19923;-90
2023/07/06 01:52:07;;;;;;;;;;;22.20;50.60;;;;;;5085977;28;19920;-90
2023/07/06 01:54:37;;;;;;;;;;;22.30;50.60;;;;;;5089712;28;19908;-91
2023/07/06 01:57:05;;;;;;;;;;;22.20;50.60;;;;;;5082117;28;19939;-90
2023/07/06 01:59:32;;;;;;;;;;;22.20;50.60;;;;;;5088285;28;19935;-90
2023/07/06 02:02:00;;;;;;;;;;;22.20;50.60;;;;;;5085634;28;19919;-90
2023/07/06 02:04:28;;;;;;;;;;;22.20;50.60;;;;;;5090306;28;20271;-90
2023/07/06 02:06:55;;;;;;;;;;;22.20;50.60;;;;;;5082381;28;19986;-90
2023/07/06 02:09:21;;;;;;;;;;;22.20;50.60;;;;;;5091991;28;19909;-90
2023/07/06 02:11:47;;;;;;;;;;;22.20;50.60;;;;;;5093108;28;19912;-90
2023/07/06 02:14:12;;;;;;;;;;;22.20;50.60;;;;;;5081976;28;19908;-90
2023/07/06 02:16:38;;;;;;;;;;;22.20;50.60;;;;;;5082989;28;20167;-90
2023/07/06 02:19:04;;;;;;;;;;;22.10;50.50;;;;;;5088459;28;19917;-90
2023/07/06 02:21:31;;;;;;;;;;;22.10;50.50;;;;;;5089353;28;19913;-90
2023/07/06 02:23:57;;;;;;;;;;;22.10;50.50;;;;;;5089321;28;19969;-90
2023/07/06 02:26:23;;;;;;;;;;;22.10;50.50;;;;;;5089867;28;19916;-90
2023/07/06 02:28:48;;;;;;;;;;;22.10;50.50;;;;;;5089974;28;19908;-90
2023/07/06 02:31:14;;;;;;;;;;;22.10;50.50;;;;;;5083736;28;19977;-90
2023/07/06 02:33:39;;;;;;;;;;;22.10;50.50;;;;;;5086539;28;19908;-90
2023/07/06 02:36:06;;;;;;;;;;;22.10;50.60;;;;;;5093087;28;19928;-90
2023/07/06 02:38:34;;;;;;;;;;;22.00;50.50;;;;;;5087661;28;19923;-90
2023/07/06 02:41:04;;;;;;;;;;;22.10;50.60;;;;;;5085814;28;20237;-90
2023/07/06 02:43:30;;;;;;;;;;;22.00;50.50;;;;;;5087444;28;19939;-90
2023/07/06 02:45:56;;;;;;;;;;;22.00;50.50;;;;;;5092977;28;20007;-90
2023/07/06 02:48:23;;;;;;;;;;;22.00;50.50;;;;;;5084329;28;20011;-90
2023/07/06 02:50:49;;;;;;;;;;;22.00;50.50;;;;;;5090723;28;19930;-90
2023/07/06 02:53:15;;;;;;;;;;;22.00;50.60;;;;;;5084309;28;19912;-90
2023/07/06 02:55:41;;;;;;;;;;;22.00;50.50;;;;;;5088085;28;20167;-90
2023/07/06 02:58:06;;;;;;;;;;;22.00;50.50;;;;;;5095107;28;19908;-90
2023/07/06 03:00:32;;;;;;;;;;;21.90;50.50;;;;;;5084881;28;19948;-91
2023/07/06 03:02:58;;;;;;;;;;;21.90;50.50;;;;;;5087138;28;20165;-91
2023/07/06 03:05:24;;;;;;;;;;;21.90;50.50;;;;;;5089127;28;19977;-90
2023/07/06 03:07:51;;;;;;;;;;;21.90;50.50;;;;;;5083435;28;19909;-91
2023/07/06 03:10:19;;;;;;;;;;;21.90;50.50;;;;;;5090234;28;20189;-90
2023/07/06 03:12:45;;;;;;;;;;;21.90;50.50;;;;;;5086647;28;20185;-90
2023/07/06 03:15:13;;;;;;;;;;;21.90;50.50;;;;;;5084707;28;20022;-90
2023/07/06 03:17:39;;;;;;;;;;;21.90;50.50;;;;;;5089241;28;19909;-91
2023/07/06 03:20:13;;;;;;;;;;;21.90;50.50;;;;;;5087113;28;19912;-91
2023/07/06 03:22:39;;;;;;;;;;;21.80;50.40;;;;;;5085075;28;20261;-91
2023/07/06 03:25:05;;;;;;;;;;;21.90;50.50;;;;;;5084987;28;20343;-90
2023/07/06 03:27:31;;;;;;;;;;;21.80;50.40;;;;;;5087063;28;19909;-91
2023/07/06 03:29:57;;;;;;;;;;;21.90;50.50;;;;;;5085623;28;20125;-91
2023/07/06 03:32:25;;;;;;;;;;;21.90;50.50;;;;;;5086395;28;19930;-91
2023/07/06 03:34:50;;;;;;;;;;;21.90;50.50;;;;;;5080906;28;20274;-91
2023/07/06 03:37:18;;;;;;;;;;;21.80;50.40;;;;;;5067780;28;20228;-91
2023/07/06 03:39:47;;;;;;;;;;;21.80;50.40;;;;;;5074599;28;19961;-90
2023/07/06 03:42:13;;;;;;;;;;;21.80;50.40;;;;;;5064362;28;19916;-91
2023/07/06 03:44:39;;;;;;;;;;;21.80;50.40;;;;;;5084419;28;19935;-90
2023/07/06 03:47:06;;;;;;;;;;;21.80;50.40;;;;;;5084078;28;19999;-91
2023/07/06 03:49:34;;;;;;;;;;;21.80;50.40;;;;;;5067833;28;19908;-90
2023/07/06 03:52:02;;;;;;;;;;;21.80;50.80;;;;;;5086187;28;19912;-91
2023/07/06 03:54:28;;;;;;;;;;;21.80;50.40;;;;;;5072646;28;20087;-91
2023/07/06 03:56:53;;;;;;;;;;;21.80;50.40;;;;;;5069138;28;20091;-90
2023/07/06 03:59:19;;;;;;;;;;;21.80;50.40;;;;;;5070866;28;19916;-89
2023/07/06 04:01:44;;;;;;;;;;;21.80;50.40;;;;;;5083213;28;19946;-91
2023/07/06 04:04:10;;;;;;;;;;;21.70;50.40;;;;;;5074110;28;19909;-91
2023/07/06 04:06:41;;;;;;;;;;;21.70;50.40;;;;;;5066410;28;19909;-91
2023/07/06 04:09:09;;;;;;;;;;;21.70;50.40;;;;;;5071084;28;19907;-91
2023/07/06 04:11:35;;;;;;;;;;;21.70;50.40;;;;;;5065001;28;19956;-91
2023/07/06 04:14:01;;;;;;;;;;;21.70;50.40;;;;;;5068706;28;19915;-91
2023/07/06 04:16:26;;;;;;;;;;;21.80;50.40;;;;;;5060511;28;19923;-90
2023/07/06 04:18:52;;;;;;;;;;;21.70;50.40;;;;;;5071921;28;19908;-91
2023/07/06 04:21:18;;;;;;;;;;;21.80;50.40;;;;;;5063250;28;19912;-90
2023/07/06 04:23:47;;;;;;;;;;;21.70;50.30;;;;;;5070310;28;19931;-91
2023/07/06 04:26:13;;;;;;;;;;;21.80;50.40;;;;;;5065013;28;19908;-91
2023/07/06 04:28:40;;;;;;;;;;;21.80;50.30;;;;;;5085560;28;19919;-91
2023/07/06 04:31:06;;;;;;;;;;;21.80;50.30;;;;;;5066358;28;20058;-91
2023/07/06 04:33:32;;;;;;;;;;;21.80;50.30;;;;;;5063462;28;20011;-91
2023/07/06 04:35:57;;;;;;;;;;;21.80;50.20;;;;;;5077242;28;19916;-90
2023/07/06 04:38:25;;;;;;;;;;;21.80;50.20;;;;;;5081374;28;20507;-90
2023/07/06 04:40:51;;;;;;;;;;;21.80;50.20;;;;;;5081441;28;20159;-90
2023/07/06 04:43:16;;;;;;;;;;;21.80;50.20;;;;;;5085619;28;19919;-90
2023/07/06 04:45:44;;;;;;;;;;;21.80;50.20;;;;;;5081920;28;20128;-90
2023/07/06 04:48:10;;;;;;;;;;;21.80;50.20;;;;;;5080077;28;19908;-90
2023/07/06 04:50:37;;;;;;;;;;;21.90;50.20;;;;;;5084721;28;19920;-90
2023/07/06 04:53:03;;;;;;;;;;;21.90;50.10;;;;;;5077653;28;20279;-91
2023/07/06 04:55:30;;;;;;;;;;;21.90;50.10;;;;;;5085990;28;19908;-90
2023/07/06 04:57:57;;;;;;;;;;;21.90;50.10;;;;;;5078049;28;20396;-90
2023/07/06 05:03:30;;;;;;;;;;;21.90;50.10;;;;;;5078495;28;19970;-91
2023/07/06 05:05:59;;;;;;;;;;;22.00;50.10;;;;;;5076454;28;19913;-91
2023/07/06 05:08:25;;;;;;;;;;;22.00;50.00;;;;;;5079590;28;19916;-91
2023/07/06 05:10:51;;;;;;;;;;;22.00;50.00;;;;;;5078746;28;19973;-91
2023/07/06 05:13:17;;;;;;;;;;;22.00;50.00;;;;;;5077124;28;19916;-91
2023/07/06 05:15:43;;;;;;;;;;;22.10;50.00;;;;;;5083948;28;19908;-91
2023/07/06 05:18:09;;;;;;;;;;;22.10;49.90;;;;;;5078023;28;19916;-91
2023/07/06 05:20:35;;;;;;;;;;;22.10;49.90;;;;;;5077301;28;20206;-91
2023/07/06 05:23:03;;;;;;;;;;;22.10;49.90;;;;;;5077469;28;19912;-91
2023/07/06 05:25:28;;;;;;;;;;;22.20;49.90;;;;;;5077093;28;20098;-91
2023/07/06 05:27:54;;;;;;;;;;;22.20;49.90;;;;;;5075820;28;19909;-90
2023/07/06 05:30:20;;;;;;;;;;;22.20;49.90;;;;;;5078854;28;20248;-91
2023/07/06 05:32:45;;;;;;;;;;;22.20;49.80;;;;;;5076732;28;19909;-91
2023/07/06 05:35:13;;;;;;;;;;;22.30;49.80;;;;;;5076396;28;19916;-91
2023/07/06 05:37:41;;;;;;;;;;;22.30;49.80;;;;;;5080382;28;19999;-91
2023/07/06 05:40:08;;;;;;;;;;;22.30;49.80;;;;;;5079314;28;19919;-91
2023/07/06 05:42:33;;;;;;;;;;;22.30;49.70;;;;;;5078900;28;20190;-91
2023/07/06 05:44:59;;;;;;;;;;;22.40;49.70;;;;;;5084610;28;20274;-91
2023/07/06 05:47:30;;;;;;;;;;;22.40;49.70;;;;;;5072904;28;19912;-91
2023/07/06 05:49:56;;;;;;;;;;;22.40;49.60;;;;;;5076096;28;19912;-91
2023/07/06 05:52:22;;;;;;;;;;;22.50;49.60;;;;;;5074871;28;19909;-92
2023/07/06 05:54:48;;;;;;;;;;;22.60;49.50;;;;;;5078101;28;19919;-92
2023/07/06 05:57:16;;;;;;;;;;;22.60;49.50;;;;;;5081288;28;19908;-91
2023/07/06 05:59:42;;;;;;;;;;;22.70;49.50;;;;;;5082906;28;20144;-91
2023/07/06 06:02:09;;;;;;;;;;;22.80;49.40;;;;;;5080636;28;19915;-92
2023/07/06 06:04:37;;;;;;;;;;;22.80;49.30;;;;;;5080004;28;19920;-91
2023/07/06 06:07:06;;;;;;;;;;;22.90;49.30;;;;;;5081258;28;19916;-90
2023/07/06 06:09:32;;;;;;;;;;;23.00;49.20;;;;;;5081640;28;20085;-92
2023/07/06 06:11:58;;;;;;;;;;;23.00;49.20;;;;;;5080047;28;19943;-91
2023/07/06 06:14:24;;;;;;;;;;;23.00;49.10;;;;;;5078379;28;20136;-91
2023/07/06 06:16:50;;;;;;;;;;;23.10;49.10;;;;;;5076927;28;20198;-91
2023/07/06 06:19:16;;;;;;;;;;;23.20;49.00;;;;;;5077665;28;19908;-91
2023/07/06 06:21:42;;;;;;;;;;;23.30;49.00;;;;;;5077411;28;20037;-92
2023/07/06 06:24:08;;;;;;;;;;;23.30;48.90;;;;;;5084604;28;19908;-91
2023/07/06 06:26:34;;;;;;;;;;;23.40;48.90;;;;;;5074796;28;19912;-91
2023/07/06 06:29:00;;;;;;;;;;;23.40;48.80;;;;;;5081831;28;20189;-91
2023/07/06 06:31:27;;;;;;;;;;;23.50;48.80;;;;;;5077409;28;19923;-91
2023/07/06 06:33:53;;;;;;;;;;;23.50;48.80;;;;;;5079405;28;19907;-91
2023/07/06 06:36:19;;;;;;;;;;;23.50;48.70;;;;;;5081031;28;19927;-90
2023/07/06 06:38:44;;;;;;;;;;;23.60;48.70;;;;;;5076291;28;20193;-91
2023/07/06 06:41:13;;;;;;;;;;;23.60;48.70;;;;;;5077278;28;19999;-91
2023/07/06 06:43:40;;;;;;;;;;;23.70;48.70;;;;;;5079046;28;20306;-91
2023/07/06 06:46:11;;;;;;;;;;;23.70;48.60;;;;;;5078156;28;19943;-91
2023/07/06 06:48:37;;;;;;;;;;;23.80;48.60;;;;;;5076381;28;19909;-90
2023/07/06 06:51:04;;;;;;;;;;;23.80;48.50;;;;;;5080824;28;19939;-91
2023/07/06 06:53:33;;;;;;;;;;;23.90;48.50;;;;;;5077382;28;19919;-91
2023/07/06 06:55:58;;;;;;;;;;;23.90;48.40;;;;;;5078483;28;20323;-91
2023/07/06 06:58:25;;;;;;;;;;;24.00;48.40;;;;;;5073113;28;19991;-90
2023/07/06 07:00:56;;;;;;;;;;;24.00;48.30;;;;;;5074606;28;19909;-91
2023/07/06 07:03:22;;;;;;;;;;;24.10;48.40;;;;;;5077564;28;20003;-91
2023/07/06 07:05:57;;;;;;;;;;;24.10;48.30;;;;;;5076801;28;20319;-90
2023/07/06 07:08:24;;;;;;;;;;;24.20;48.30;;;;;;5076058;28;20255;-90
2023/07/06 07:11:06;;;;;;;;;;;24.20;48.20;;;;;;5079643;28;19923;-90
2023/07/06 07:13:37;;;;;;;;;;;24.30;48.20;;;;;;5078139;28;19908;-91
2023/07/06 07:16:11;;;;;;;;;;;24.40;48.20;;;;;;5076435;28;19958;-91
2023/07/06 07:18:48;;;;;;;;;;;24.40;48.10;;;;;;5077776;28;19908;-91
2023/07/06 07:21:14;;;;;;;;;;;24.50;48.10;;;;;;5083046;28;19991;-91
2023/07/06 07:23:42;;;;;;;;;;;24.50;48.00;;;;;;5078006;28;20320;-91
2023/07/06 07:26:08;;;;;;;;;;;24.50;47.90;;;;;;5087784;28;20015;-91
2023/07/06 07:28:34;;;;;;;;;;;24.60;48.00;;;;;;5078948;28;19973;-90
2023/07/06 07:30:59;;;;;;;;;;;24.60;47.90;;;;;;5079108;28;20051;-91
2023/07/06 07:33:28;;;;;;;;;;;24.70;47.90;;;;;;5077797;28;19947;-92
2023/07/06 07:36:02;;;;;;;;;;;24.80;47.90;;;;;;5080548;28;19916;-91
2023/07/06 07:38:33;;;;;;;;;;;24.80;47.80;;;;;;5077858;28;20191;-91
2023/07/06 07:41:00;;;;;;;;;;;24.90;47.80;;;;;;5077470;28;20006;-92
2023/07/06 07:43:36;;;;;;;;;;;24.90;47.70;;;;;;5079644;28;19908;-92
2023/07/06 07:46:03;;;;;;;;;;;25.00;47.70;;;;;;5076429;28;19916;-92
2023/07/06 07:48:32;;;;;;;;;;;25.10;47.70;;;;;;5068885;28;19912;-92
2023/07/06 07:51:08;;;;;;;;;;;25.10;47.60;;;;;;5073056;28;20221;-91
2023/07/06 07:53:34;;;;;;;;;;;25.30;47.60;;;;;;5081080;28;20168;-91
2023/07/06 07:56:00;;;;;;;;;;;25.40;47.40;;;;;;5075724;28;19935;-92
2023/07/06 07:58:26;;;;;;;;;;;25.60;47.30;;;;;;5074977;28;20010;-91
2023/07/06 08:01:05;;;;;;;;;;;25.70;47.20;;;;;;5074541;28;19916;-92
2023/07/06 08:03:31;;;;;;;;;;;25.80;47.10;;;;;;5080947;28;19912;-92
2023/07/06 08:06:02;;;;;;;;;;;25.90;47.00;;;;;;5072213;28;20225;-91
2023/07/06 08:08:29;;;;;;;;;;;25.90;47.00;;;;;;5069631;28;19916;-93
2023/07/06 08:10:54;;;;;;;;;;;25.90;47.00;;;;;;5074517;28;19947;-91
2023/07/06 08:13:21;;;;;;;;;;;25.90;47.00;;;;;;5073277;28;20250;-91
2023/07/06 08:15:52;;;;;;;;;;;26.00;47.00;;;;;;5075875;28;19913;-91
2023/07/06 08:18:23;;;;;;;;;;;26.00;47.10;;;;;;5078025;28;19916;-91
2023/07/06 08:20:53;;;;;;;;;;;26.00;47.10;;;;;;5077879;28;20340;-91
2023/07/06 08:23:20;;;;;;;;;;;26.00;47.10;;;;;;5075186;28;19913;-91
2023/07/06 08:25:46;;;;;;;;;;;26.00;47.10;;;;;;5073966;28;19944;-91
2023/07/06 08:28:24;;;;;;;;;;;26.00;47.00;;;;;;5079726;28;19978;-91
2023/07/06 08:30:51;;;;;;;;;;;26.00;47.10;;;;;;5073396;28;20198;-92
2023/07/06 08:33:21;;;;;;;;;;;26.10;47.10;;;;;;5075974;28;19916;-91
2023/07/06 08:35:47;;;;;;;;;;;26.10;47.10;;;;;;5074099;28;19924;-91
2023/07/06 08:38:13;;;;;;;;;;;26.10;47.50;;;;;;5075041;28;19909;-92
2023/07/06 08:40:40;;;;;;;;;;;26.10;47.10;;;;;;5072564;28;19922;-92
2023/07/06 08:43:08;;;;;;;;;;;26.10;47.10;;;;;;5074208;28;20044;-91
2023/07/06 08:45:40;;;;;;;;;;;26.20;47.20;;;;;;5073523;28;20118;-91
2023/07/06 08:48:10;;;;;;;;;;;26.20;47.20;;;;;;5071241;28;20099;-91
2023/07/06 08:50:36;;;;;;;;;;;26.20;47.20;;;;;;5070414;28;20171;-91
2023/07/06 08:53:05;;;;;;;;;;;26.20;47.20;;;;;;5072311;28;19908;-92
2023/07/06 08:55:30;;;;;;;;;;;26.20;47.20;;;;;;5074552;28;19924;-91
2023/07/06 08:58:00;;;;;;;;;;;26.20;47.20;;;;;;5072304;28;19908;-91
2023/07/06 09:00:35;;;;;;;;;;;26.20;47.20;;;;;;5071809;28;19924;-91
2023/07/06 09:03:06;;;;;;;;;;;26.20;47.20;;;;;;5069974;28;19908;-91
2023/07/06 09:05:34;;;;;;;;;;;26.30;47.30;;;;;;5074287;28;20613;-91
2023/07/06 09:08:00;;;;;;;;;;;26.30;47.30;;;;;;5074133;28;19909;-91
2023/07/06 09:10:29;;;;;;;;;;;26.30;47.20;;;;;;5072142;28;19913;-91
2023/07/06 09:13:11;;;;;;;;;;;26.30;47.20;;;;;;5076076;28;20234;-91
2023/07/06 09:15:38;;;;;;;;;;;26.40;47.30;;;;;;5073175;28;19936;-90
2023/07/06 09:18:03;;;;;;;;;;;26.40;47.30;;;;;;5051438;28;20379;-91
2023/07/06 09:20:29;;;;;;;;;;;26.40;47.30;;;;;;5075296;28;20289;-91
2023/07/06 09:22:54;;;;;;;;;;;26.40;47.30;;;;;;5073240;28;19985;-91
2023/07/06 09:25:26;;;;;;;;;;;26.50;47.30;;;;;;5070941;28;19923;-91
2023/07/06 09:27:55;;;;;;;;;;;26.50;47.30;;;;;;5077321;28;19915;-91
2023/07/06 09:30:33;;;;;;;;;;;26.50;47.30;;;;;;5075551;28;20128;-90
2023/07/06 09:33:04;;;;;;;;;;;26.60;47.30;;;;;;5076578;28;19912;-90
2023/07/06 09:35:38;;;;;;;;;;;26.60;47.30;;;;;;5077203;28;19916;-91
2023/07/06 09:38:06;;;;;;;;;;;26.60;47.30;;;;;;5080650;28;19912;-91
2023/07/06 09:40:36;;;;;;;;;;;26.60;47.30;;;;;;5077794;28;19912;-91
2023/07/06 09:43:16;;;;;;;;;;;26.60;47.30;;;;;;5076551;28;19908;-89
2023/07/06 09:45:42;;;;;;;;;;;26.60;47.30;;;;;;5073032;28;19966;-91
2023/07/06 09:48:28;;;;;;;;;;;26.60;47.40;;;;;;5073257;28;19908;-91
2023/07/06 09:50:59;;;;;;;;;;;26.70;47.40;;;;;;5073922;28;19908;-91
2023/07/06 09:53:31;;;;;;;;;;;26.70;47.40;;;;;;5077172;28;20155;-90
2023/07/06 09:55:56;;;;;;;;;;;26.70;47.50;;;;;;5077241;28;19909;-92
2023/07/06 09:58:24;;;;;;;;;;;26.70;47.50;;;;;;5077615;28;19918;-91
2023/07/06 10:01:03;;;;;;;;;;;26.70;47.50;;;;;;5080461;28;20073;-91
2023/07/06 10:03:46;;;;;;;;;;;26.70;47.50;;;;;;5071245;28;19915;-91
2023/07/06 10:06:14;;;;;;;;;;;26.80;47.50;;;;;;5077458;28;20353;-90
2023/07/06 10:08:47;;;;;;;;;;;26.80;47.50;;;;;;5073908;28;19986;-90
2023/07/06 10:11:24;;;;;;;;;;;26.80;47.50;;;;;;5082229;28;20193;-91
2023/07/06 10:13:59;;;;;;;;;;;26.80;47.50;;;;;;5076643;28;19909;-91
2023/07/06 10:16:35;;;;;;;;;;;26.80;47.50;;;;;;5083076;28;20087;-91
2023/07/06 10:19:32;;;;;;;;;;;26.90;47.50;;;;;;5072813;28;19943;-90
2023/07/06 10:22:07;;;;;;;;;;;26.90;47.60;;;;;;4990260;28;19921;-90
2023/07/06 10:24:45;;;;;;;;;;;26.90;47.60;;;;;;5072706;28;19995;-91
2023/07/06 10:27:26;;;;;;;;;;;26.90;47.60;;;;;;5073482;28;20258;-91
2023/07/06 10:29:54;;;;;;;;;;;26.90;47.60;;;;;;5076521;28;19916;-91
2023/07/06 10:32:27;;;;;;;;;;;26.90;47.70;;;;;;5073284;28;20307;-90
2023/07/06 10:34:58;;;;;;;;;;;26.90;47.70;;;;;;5075496;28;20173;-91
2023/07/06 10:37:24;;;;;;;;;;;26.90;47.70;;;;;;5074015;28;19972;-90
2023/07/06 10:39:54;;;;;;;;;;;26.90;47.70;;;;;;5072739;28;19913;-90
2023/07/06 10:42:21;;;;;;;;;;;26.90;47.70;;;;;;5080097;28;19913;-91
2023/07/06 10:44:55;;;;;;;;;;;26.90;47.70;;;;;;5078013;28;20164;-91
2023/07/06 10:47:36;;;;;;;;;;;27.00;47.80;;;;;;5074890;28;19999;-91
2023/07/06 10:50:08;;;;;;;;;;;27.00;47.80;;;;;;5077392;28;19917;-91
2023/07/06 10:52:39;;;;;;;;;;;27.00;47.80;;;;;;5076185;28;19908;-91
2023/07/06 10:55:11;;;;;;;;;;;27.10;47.80;;;;;;5080541;28;20383;-91
2023/07/06 10:57:36;;;;;;;;;;;27.10;47.80;;;;;;5073589;28;20249;-91
2023/07/06 11:00:20;;;;;;;;;;;27.10;47.80;;;;;;5080294;28;19916;-91
2023/07/06 11:02:46;;;;;;;;;;;27.10;47.80;;;;;;5072260;28;19959;-90
2023/07/06 11:05:15;;;;;;;;;;;27.10;47.80;;;;;;5073403;28;20106;-90
2023/07/06 11:07:59;;;;;;;;;;;27.10;47.80;;;;;;5076165;28;19909;-91
2023/07/06 11:10:25;;;;;;;;;;;27.10;47.80;;;;;;5069910;28;20076;-90
2023/07/06 11:12:57;;;;;;;;;;;27.10;47.90;;;;;;5073130;28;19908;-91
2023/07/06 11:15:46;;;;;;;;;;;27.10;47.90;;;;;;5073900;28;19919;-90
2023/07/06 11:18:27;;;;;;;;;;;27.10;48.00;;;;;;5058366;28;19968;-91
2023/07/06 11:20:56;;;;;;;;;;;27.10;48.00;;;;;;5072346;28;19922;-91
2023/07/06 11:23:30;;;;;;;;;;;27.20;48.00;;;;;;5078181;28;20061;-90
2023/07/06 11:25:56;;;;;;;;;;;27.20;48.00;;;;;;5072914;28;19921;-90
2023/07/06 11:28:23;;;;;;;;;;;27.20;48.00;;;;;;5081501;28;20044;-90
2023/07/06 11:31:18;;;;;;;;;;;27.20;48.10;;;;;;5072866;28;19973;-92
2023/07/06 11:33:48;;;;;;;;;;;27.20;48.10;;;;;;5003925;28;20013;-91
2023/07/06 11:36:22;;;;;;;;;;;27.20;48.00;;;;;;5081324;28;19955;-91
2023/07/06 11:38:55;;;;;;;;;;;27.20;48.10;;;;;;5075985;28;20186;-91
2023/07/06 11:41:39;;;;;;;;;;;27.20;48.10;;;;;;5075606;28;19916;-91
2023/07/06 11:44:24;;;;;;;;;;;27.20;48.20;;;;;;5074828;28;20167;-91
2023/07/06 11:47:08;;;;;;;;;;;27.20;48.20;;;;;;5077352;28;20004;-91
2023/07/06 11:49:42;;;;;;;;;;;27.20;48.20;;;;;;5074323;28;20155;-91
2023/07/06 11:52:24;;;;;;;;;;;27.20;48.30;;;;;;5072817;28;20260;-91
2023/07/06 11:55:05;;;;;;;;;;;27.20;48.30;;;;;;5074251;28;20011;-91
2023/07/06 11:57:48;;;;;;;;;;;27.20;48.30;;;;;;5072840;28;19929;-90
2023/07/06 12:02:58;;;;;;;;;;;27.20;48.40;;;;;;5078163;28;20325;-90
2023/07/06 12:05:29;;;;;;;;;;;27.20;48.40;;;;;;5071816;28;20339;-90
2023/07/06 12:08:00;;;;;;;;;;;27.20;48.40;;;;;;5068848;28;19935;-91
2023/07/06 12:10:28;;;;;;;;;;;27.20;48.40;;;;;;5072103;28;19908;-90
2023/07/06 12:12:55;;;;;;;;;;;27.20;48.40;;;;;;5072451;28;20147;-90
2023/07/06 12:15:22;;;;;;;;;;;27.20;48.50;;;;;;5071008;28;19917;-90
2023/07/06 12:17:55;;;;;;;;;;;27.20;48.50;;;;;;5070963;28;19912;-91
2023/07/06 12:20:29;;;;;;;;;;;27.20;48.50;;;;;;5070775;28;20084;-90
2023/07/06 12:22:57;;;;;;;;;;;27.20;48.50;;;;;;5071131;28;20150;-90
2023/07/06 12:25:24;;;;;;;;;;;27.20;48.60;;;;;;5075200;28;19920;-90
2023/07/06 12:27:49;;;;;;;;;;;27.20;48.60;;;;;;5065333;28;20251;-90
2023/07/06 12:30:18;;;;;;;;;;;27.20;48.60;;;;;;5073824;28;19908;-91
2023/07/06 12:32:47;;;;;;;;;;;27.20;48.60;;;;;;5069013;28;19970;-90
2023/07/06 12:35:12;;;;;;;;;;;27.20;48.60;;;;;;5068550;28;20209;-91
2023/07/06 12:37:41;;;;;;;;;;;27.20;48.70;;;;;;5073615;28;19913;-91
2023/07/06 12:40:28;;;;;;;;;;;27.20;48.70;;;;;;5070691;28;19922;-90
2023/07/06 12:42:54;;;;;;;;;;;27.20;48.70;;;;;;5079196;28;20050;-91
2023/07/06 12:45:24;;;;;;;;;;;27.20;48.70;;;;;;5070120;28;19958;-90
2023/07/06 12:47:58;;;;;;;;;;;27.20;48.70;;;;;;5073503;28;19912;-90
2023/07/06 12:50:29;;;;;;;;;;;27.20;48.70;;;;;;5070571;28;19973;-90
2023/07/06 12:53:08;;;;;;;;;;;27.20;48.70;;;;;;5071125;28;19919;-90
2023/07/06 12:55:35;;;;;;;;;;;27.20;48.70;;;;;;5075612;28;20270;-91
2023/07/06 12:58:23;;;;;;;;;;;27.20;48.70;;;;;;5070574;28;20167;-91
2023/07/06 13:00:50;;;;;;;;;;;27.20;48.80;;;;;;5070527;28;19922;-91
2023/07/06 13:03:16;;;;;;;;;;;27.20;48.80;;;;;;5070124;28;20275;-90
2023/07/06 13:05:52;;;;;;;;;;;27.20;48.80;;;;;;5077338;28;19909;-90
2023/07/06 13:08:20;;;;;;;;;;;27.20;48.90;;;;;;5076365;28;19919;-91
2023/07/06 13:10:59;;;;;;;;;;;27.20;48.90;;;;;;5067425;28;20331;-91
2023/07/06 13:13:27;;;;;;;;;;;27.20;48.90;;;;;;5078712;28;20063;-91
2023/07/06 13:15:56;;;;;;;;;;;27.20;48.90;;;;;;5071435;28;19912;-91
2023/07/06 13:18:25;;;;;;;;;;;27.20;48.90;;;;;;5077604;28;19940;-91
2023/07/06 13:20:53;;;;;;;;;;;27.20;48.90;;;;;;5078521;28;19931;-91
2023/07/06 13:23:20;;;;;;;;;;;27.20;48.90;;;;;;5068734;28;19916;-90
2023/07/06 13:25:50;;;;;;;;;;;27.20;48.90;;;;;;5070382;28;19908;-91
2023/07/06 13:28:23;;;;;;;;;;;27.20;48.90;;;;;;5069357;28;19908;-91
2023/07/06 13:30:49;;;;;;;;;;;27.20;48.90;;;;;;5070436;28;19920;-91
2023/07/06 13:33:16;;;;;;;;;;;27.20;48.90;;;;;;5067624;28;19908;-91
2023/07/06 13:35:44;;;;;;;;;;;27.20;49.00;;;;;;5071050;28;19916;-91
2023/07/06 13:38:12;;;;;;;;;;;27.20;49.00;;;;;;5069792;28;19908;-91
2023/07/06 13:40:39;;;;;;;;;;;27.20;49.10;;;;;;5066291;28;20091;-91
2023/07/06 13:43:08;;;;;;;;;;;27.20;49.10;;;;;;5070638;28;20159;-90
2023/07/06 13:45:35;;;;;;;;;;;27.10;49.10;;;;;;5065222;28;20101;-91
2023/07/06 13:48:03;;;;;;;;;;;27.10;49.10;;;;;;5069178;28;19908;-91
2023/07/06 13:50:29;;;;;;;;;;;27.10;49.20;;;;;;5070749;28;20063;-91
2023/07/06 13:52:55;;;;;;;;;;;27.10;49.20;;;;;;5069659;28;19993;-91
2023/07/06 13:55:31;;;;;;;;;;;27.10;49.20;;;;;;5067051;28;20543;-91
2023/07/06 13:57:57;;;;;;;;;;;27.10;49.20;;;;;;5067125;28;20164;-91
2023/07/06 14:00:23;;;;;;;;;;;27.10;49.20;;;;;;5069253;28;19916;-90
2023/07/06 14:02:49;;;;;;;;;;;27.10;49.20;;;;;;5069601;28;20186;-91
2023/07/06 14:05:39;;;;;;;;;;;27.10;49.30;;;;;;5067951;28;19909;-91
2023/07/06 14:08:04;;;;;;;;;;;27.10;49.30;;;;;;5068655;28;20206;-90
2023/07/06 14:10:32;;;;;;;;;;;27.10;49.30;;;;;;5066960;28;20238;-91
2023/07/06 14:12:58;;;;;;;;;;;27.10;49.30;;;;;;5068177;28;19914;-91
2023/07/06 14:15:26;;;;;;;;;;;27.10;49.40;;;;;;5075692;28;20175;-91
2023/07/06 14:17:51;;;;;;;;;;;27.10;49.30;;;;;;5074275;28;19909;-91
2023/07/06 14:20:18;;;;;;;;;;;27.10;49.30;;;;;;5073157;28;20047;-91
2023/07/06 14:22:43;;;;;;;;;;;27.10;49.30;;;;;;5071115;28;20191;-91
2023/07/06 14:25:20;;;;;;;;;;;27.10;49.40;;;;;;5072333;28;19919;-91
2023/07/06 14:27:45;;;;;;;;;;;27.10;49.40;;;;;;5072277;28;20174;-91
2023/07/06 14:30:13;;;;;;;;;;;27.10;49.40;;;;;;5077289;28;19916;-90
2023/07/06 14:32:39;;;;;;;;;;;27.10;49.40;;;;;;5072611;28;20240;-90
2023/07/06 14:35:05;;;;;;;;;;;27.10;49.40;;;;;;5072801;28;20330;-91